Lake Leelanau, Michigan
Current Conditions -  °F | °C
As of 4:53 PM on Tuesday 21 Oct 2014 (Local Time) from KTVC Reporting Station
Few Clouds Few Clouds  
Wind Chill: 44°   Ceiling: Unl
Heat Index: 48°   Visibility: 10mi
Dew Point: 34°   Wind: 9mph
Humidity: 58%   Direction: 350°N
Pressure: 30.18"   Gusts: NA
Location:  44.98°N, 85.71°W
Report Text: KTVC 212053Z 35008KT 10SM FEW034 09/01 A3018 RMK AO2 SLP224 T00890011 51003
Loading
Personal Weather Stations






























Interactive Weather Map New forecast layout! Learn more

10-Day Weather Forecast

Advertisements
Track Severe Weather on mobile